createdAt,value
2022-12-06T00:00:39.574Z,11.37
2022-12-06T00:04:40.876Z,11.07
2022-12-06T00:08:40.932Z,10.93
2022-12-06T00:12:40.908Z,11.43
2022-12-06T00:16:40.640Z,10.9
2022-12-06T00:20:40.511Z,12.1
2022-12-06T00:24:40.265Z,11.4
2022-12-06T00:28:41.161Z,11.47
2022-12-06T00:32:40.638Z,12.23
2022-12-06T00:36:41.203Z,11.63
2022-12-06T00:40:41.017Z,12.53
2022-12-06T00:44:40.463Z,12.3
2022-12-06T00:48:40.514Z,13.13
2022-12-06T00:52:40.523Z,11.7
2022-12-06T00:56:40.372Z,14.03
2022-12-06T01:00:40.630Z,12.67
2022-12-06T01:04:40.563Z,12.5
2022-12-06T01:08:40.514Z,12.83
2022-12-06T01:12:40.528Z,11.97
2022-12-06T01:16:40.347Z,12.6
2022-12-06T01:20:40.448Z,11.63
2022-12-06T01:24:40.519Z,12.7
2022-12-06T01:28:40.543Z,12.8
2022-12-06T01:32:40.374Z,9.57
2022-12-06T01:36:40.621Z,11.17
2022-12-06T01:40:40.680Z,11.3
2022-12-06T01:44:40.452Z,11.5
2022-12-06T01:48:40.628Z,12.23
2022-12-06T01:52:40.425Z,11.73
2022-12-06T01:56:40.503Z,10.6
2022-12-06T02:00:40.037Z,12.37
2022-12-06T02:04:40.959Z,11.4
2022-12-06T02:08:40.487Z,11.43
2022-12-06T02:12:40.824Z,11.17
2022-12-06T02:16:41.439Z,12.4
2022-12-06T02:20:40.542Z,11.3
2022-12-06T02:24:40.512Z,11.4
2022-12-06T02:28:40.488Z,12.13
2022-12-06T02:32:40.614Z,11.37
2022-12-06T02:36:40.577Z,11.73
2022-12-06T02:40:40.588Z,11.83
2022-12-06T02:44:40.406Z,10.57
2022-12-06T02:48:40.728Z,11.27
2022-12-06T02:52:40.587Z,11.6
2022-12-06T02:56:40.528Z,11.7
2022-12-06T03:00:40.781Z,12.6
2022-12-06T03:04:40.791Z,10.73
2022-12-06T03:08:40.435Z,10.17
2022-12-06T03:12:40.728Z,11.17
2022-12-06T03:16:40.601Z,11.57
2022-12-06T03:20:40.693Z,11.8
2022-12-06T03:24:40.626Z,10.8
2022-12-06T03:28:40.491Z,10.97
2022-12-06T03:32:40.628Z,13.47
2022-12-06T03:36:39.304Z,11.17
2022-12-06T03:40:40.607Z,11.53
2022-12-06T03:44:40.549Z,12.73
2022-12-06T03:48:40.620Z,12.8
2022-12-06T03:52:40.583Z,12.17
2022-12-06T03:56:40.581Z,12.57
2022-12-06T04:00:40.477Z,11.5
2022-12-06T04:04:40.417Z,12.57
2022-12-06T04:08:40.632Z,11.8
2022-12-06T04:12:40.749Z,11.8
2022-12-06T04:16:40.568Z,13.8
2022-12-06T04:20:40.491Z,12
2022-12-06T04:24:40.985Z,13.83
2022-12-06T04:28:40.112Z,12.37
2022-12-06T04:32:39.562Z,14.43
2022-12-06T04:36:40.482Z,13.2
2022-12-06T04:40:40.365Z,12.07
2022-12-06T04:44:40.554Z,13
2022-12-06T04:48:40.705Z,11.27
2022-12-06T04:52:40.471Z,12.4
2022-12-06T04:56:40.287Z,13.33
2022-12-06T05:00:40.904Z,14.23
2022-12-06T05:04:41.220Z,11.5
2022-12-06T05:08:40.701Z,12.8
2022-12-06T05:12:40.487Z,14.33
2022-12-06T05:16:40.802Z,13.77
2022-12-06T05:20:41.249Z,12.57
2022-12-06T05:24:40.477Z,12.77
2022-12-06T05:28:40.475Z,12.8
2022-12-06T05:32:40.679Z,11.97
2022-12-06T05:36:40.462Z,13.27
2022-12-06T05:40:40.858Z,13.1
2022-12-06T05:44:40.508Z,13.33
2022-12-06T05:48:40.384Z,12.7
2022-12-06T05:52:40.659Z,12.4
2022-12-06T05:56:39.874Z,11.37
2022-12-06T06:00:41.395Z,12.37
2022-12-06T06:04:40.233Z,12.77
2022-12-06T06:08:40.474Z,12.33
2022-12-06T06:12:40.812Z,11.6
2022-12-06T06:16:40.766Z,12.83
2022-12-06T06:20:40.931Z,13.87
2022-12-06T06:24:40.444Z,11.9
2022-12-06T06:28:40.533Z,13.6
2022-12-06T06:32:40.460Z,12.73
2022-12-06T06:36:45.515Z,12.97
2022-12-06T06:40:41.061Z,13.2
2022-12-06T06:44:40.522Z,13.2
2022-12-06T06:48:40.612Z,13.53
2022-12-06T06:52:40.209Z,14.17
2022-12-06T06:56:40.413Z,13
2022-12-06T07:00:40.615Z,12.97
2022-12-06T07:04:40.498Z,13.93
2022-12-06T07:08:40.542Z,13.27
2022-12-06T07:12:40.444Z,13.4
2022-12-06T07:16:40.685Z,13.87
2022-12-06T07:20:41.071Z,14.2
2022-12-06T07:24:42.988Z,15.03
2022-12-06T07:28:40.296Z,14.3
2022-12-06T07:32:40.273Z,13.8
2022-12-06T07:36:40.517Z,13.4
2022-12-06T07:41:03.336Z,14.27
2022-12-06T07:44:40.403Z,13.37
2022-12-06T07:48:40.481Z,13.17
2022-12-06T07:52:40.356Z,13.2
2022-12-06T07:56:40.565Z,12.63
2022-12-06T08:00:40.789Z,11.87
2022-12-06T08:04:40.504Z,12.67
2022-12-06T08:08:40.433Z,11.63
2022-12-06T08:12:40.377Z,11.13
2022-12-06T08:16:39.893Z,11.6
2022-12-06T08:20:41.015Z,11.53
2022-12-06T08:24:40.513Z,10.9
2022-12-06T08:28:40.907Z,11.37
2022-12-06T08:32:40.554Z,10.9
2022-12-06T08:36:40.469Z,11.83
2022-12-06T08:40:40.828Z,10.27
2022-12-06T08:44:40.513Z,10.43
2022-12-06T08:48:43.135Z,10.93
2022-12-06T08:52:40.024Z,10.67
2022-12-06T08:56:40.448Z,10.8
2022-12-06T09:00:40.697Z,9.7
2022-12-06T09:04:40.696Z,9.47
2022-12-06T09:08:40.507Z,11.03
2022-12-06T09:12:40.153Z,9.73
2022-12-06T09:16:40.537Z,10.73
2022-12-06T09:20:40.603Z,9.93
2022-12-06T09:24:40.467Z,9.47
2022-12-06T09:28:40.503Z,10.1
2022-12-06T09:32:40.246Z,8.43
2022-12-06T09:36:40.508Z,9.03
2022-12-06T09:40:42.982Z,9.6
2022-12-06T09:44:40.511Z,8.73
2022-12-06T09:48:45.655Z,9.17
2022-12-06T09:52:40.520Z,8.87
2022-12-06T09:56:40.445Z,9.07
2022-12-06T10:00:40.679Z,7.67
2022-12-06T10:04:41.113Z,8.77
2022-12-06T10:08:40.690Z,8.6
2022-12-06T10:12:40.408Z,8.63
2022-12-06T10:16:40.859Z,6.8
2022-12-06T10:20:41.232Z,7.77
2022-12-06T10:24:41.120Z,7.57
2022-12-06T10:28:40.494Z,8.33
2022-12-06T10:32:40.996Z,8.67
2022-12-06T10:36:40.655Z,9.2
2022-12-06T10:40:39.493Z,8.17
2022-12-06T10:44:40.420Z,8.97
2022-12-06T10:48:40.456Z,7.5
2022-12-06T10:52:40.207Z,8
2022-12-06T10:56:40.576Z,9.43
2022-12-06T11:00:40.990Z,6.63
2022-12-06T11:04:40.545Z,8.2
2022-12-06T11:08:40.617Z,8.33
2022-12-06T11:12:40.400Z,7
2022-12-06T11:16:40.550Z,6.17
2022-12-06T11:20:40.486Z,8.37
2022-12-06T11:24:46.070Z,7.6
2022-12-06T11:28:40.511Z,7.17
2022-12-06T11:32:40.733Z,7.03
2022-12-06T11:36:40.690Z,6.03
2022-12-06T11:40:40.597Z,7.53
2022-12-06T11:44:44.854Z,8.07
2022-12-06T11:48:40.544Z,8.27
2022-12-06T11:52:40.027Z,7.5
2022-12-06T11:56:41.156Z,7.23
2022-12-06T12:00:40.602Z,8.1
2022-12-06T12:04:40.729Z,7.8
2022-12-06T12:08:40.593Z,7.47
2022-12-06T12:12:40.574Z,7.23
2022-12-06T12:16:40.680Z,9.1
2022-12-06T12:20:40.547Z,6.87
2022-12-06T12:25:03.162Z,8.6
2022-12-06T12:28:40.448Z,7.2
2022-12-06T12:32:40.059Z,6.93
2022-12-06T12:36:40.513Z,9.07
2022-12-06T12:40:41.254Z,7.77
2022-12-06T12:44:40.482Z,8.1
2022-12-06T12:48:40.529Z,7.7
2022-12-06T12:52:40.452Z,7.17
2022-12-06T12:56:40.607Z,7.17
2022-12-06T13:00:40.581Z,8.47
2022-12-06T13:04:39.434Z,8.1
2022-12-06T13:08:41.256Z,8.97
2022-12-06T13:12:40.762Z,8.77
2022-12-06T13:16:40.477Z,7.8
2022-12-06T13:20:40.407Z,7.57
2022-12-06T13:24:40.836Z,6.6
2022-12-06T13:28:40.904Z,8.27
2022-12-06T13:32:40.378Z,7.33
2022-12-06T13:36:40.287Z,8.23
2022-12-06T13:40:40.844Z,8.9
2022-12-06T13:44:40.647Z,7.03
2022-12-06T13:48:40.582Z,6.63
2022-12-06T13:52:40.480Z,6.57
2022-12-06T13:56:40.280Z,7.8
2022-12-06T14:00:40.520Z,6.4
2022-12-06T14:04:40.462Z,7.63
2022-12-06T14:08:40.842Z,7.5
2022-12-06T14:12:40.013Z,7
2022-12-06T14:16:41.146Z,7.87
2022-12-06T14:20:40.845Z,6.57
2022-12-06T14:24:40.492Z,8.97
2022-12-06T14:28:40.590Z,8.57
2022-12-06T14:32:40.628Z,8.9
2022-12-06T14:36:40.279Z,9
2022-12-06T14:40:49.052Z,8.67
2022-12-06T14:44:39.882Z,6.67
2022-12-06T14:48:40.651Z,9.97
2022-12-06T14:52:40.132Z,10.3
2022-12-06T14:56:41.154Z,8.83
2022-12-06T15:00:40.694Z,9.83
2022-12-06T15:04:40.721Z,11.3
2022-12-06T15:08:40.519Z,11.53
2022-12-06T15:12:40.587Z,10.27
2022-12-06T15:16:40.803Z,12.13
2022-12-06T15:20:41.143Z,10.6
2022-12-06T15:24:40.415Z,10.7
2022-12-06T15:28:40.508Z,10
2022-12-06T15:32:40.471Z,11.73
2022-12-06T15:36:40.506Z,11.37
2022-12-06T15:40:41.052Z,11.63
2022-12-06T15:44:44.265Z,8.93
2022-12-06T15:48:40.510Z,11.53
2022-12-06T15:52:40.436Z,13.53
2022-12-06T15:56:40.756Z,18.1
2022-12-06T16:00:40.854Z,9.97
2022-12-06T16:04:40.531Z,11.1
2022-12-06T16:08:40.540Z,12.03
2022-12-06T16:12:40.751Z,12.17
2022-12-06T16:16:43.533Z,11.77
2022-12-06T16:20:41.083Z,10.3
2022-12-06T16:24:40.838Z,12.3
2022-12-06T16:28:40.556Z,13.2
2022-12-06T16:32:40.673Z,11.1
2022-12-06T16:36:40.457Z,13.6
2022-12-06T16:40:40.792Z,13.9
2022-12-06T16:44:40.440Z,13
2022-12-06T16:48:40.456Z,7.37
2022-12-06T16:52:40.607Z,7.43
2022-12-06T16:56:41.761Z,12.57
2022-12-06T17:00:40.689Z,12.27
2022-12-06T17:04:40.641Z,11.57
2022-12-06T17:08:40.869Z,11.4
2022-12-06T17:12:40.636Z,12.57
2022-12-06T17:16:40.612Z,12.5
2022-12-06T17:20:40.900Z,11.2
2022-12-06T17:24:40.537Z,10.83
2022-12-06T17:28:40.713Z,11.33
2022-12-06T17:32:40.652Z,11.17
2022-12-06T17:36:40.612Z,11.3
2022-12-06T17:40:40.802Z,11.4
2022-12-06T17:44:40.938Z,10.9
2022-12-06T17:48:44.543Z,9.97
2022-12-06T17:52:40.678Z,12.3
2022-12-06T17:56:40.430Z,8.23
2022-12-06T18:00:40.683Z,10.1
2022-12-06T18:04:40.663Z,9.57
2022-12-06T18:08:40.513Z,9.57
2022-12-06T18:12:40.774Z,9.8
2022-12-06T18:16:40.616Z,11.43
2022-12-06T18:20:40.885Z,9.83
2022-12-06T18:24:40.886Z,10.37
2022-12-06T18:28:40.279Z,10.27
2022-12-06T18:32:40.500Z,10.77
2022-12-06T18:36:41.305Z,7.57
2022-12-06T18:40:40.582Z,9.3
2022-12-06T18:44:40.459Z,11.57
2022-12-06T18:48:40.531Z,9.9
2022-12-06T18:52:39.813Z,9.63
2022-12-06T18:56:41.184Z,7.53
2022-12-06T19:00:41.470Z,10.4
2022-12-06T19:04:40.644Z,8.13
2022-12-06T19:08:40.568Z,8
2022-12-06T19:12:40.958Z,8.87
2022-12-06T19:16:40.492Z,7.87
2022-12-06T19:20:40.505Z,5.67
2022-12-06T19:24:40.454Z,4.53
2022-12-06T19:28:40.549Z,6.23
2022-12-06T19:32:41.133Z,5.13
2022-12-06T19:36:40.646Z,5.5
2022-12-06T19:40:40.602Z,4.63
2022-12-06T19:44:40.450Z,5.17
2022-12-06T19:48:40.526Z,4.7
2022-12-06T19:52:40.611Z,4.37
2022-12-06T19:56:40.504Z,2.87
2022-12-06T20:00:40.593Z,1.2
2022-12-06T20:04:40.732Z,3.37
2022-12-06T20:08:40.720Z,1.73
2022-12-06T20:12:40.644Z,2.43
2022-12-06T20:16:40.294Z,2.47
2022-12-06T20:20:40.876Z,3.3
2022-12-06T20:24:40.504Z,2.77
2022-12-06T20:28:40.726Z,2.27
2022-12-06T20:32:40.596Z,2.7
2022-12-06T20:36:40.493Z,2.43
2022-12-06T20:40:40.716Z,2.1
2022-12-06T20:44:40.675Z,2.03
2022-12-06T20:48:40.799Z,1.6
2022-12-06T20:52:40.531Z,1.77
2022-12-06T20:56:40.583Z,2.73
2022-12-06T21:00:40.532Z,3
2022-12-06T21:04:40.629Z,2.23
2022-12-06T21:08:40.411Z,2.43
2022-12-06T21:12:40.637Z,1.8
2022-12-06T21:16:41.175Z,2.67
2022-12-06T21:20:40.854Z,2.63
2022-12-06T21:24:40.451Z,3.17
2022-12-06T21:28:40.572Z,3
2022-12-06T21:32:40.491Z,3.23
2022-12-06T21:36:40.537Z,2.7
2022-12-06T21:40:40.614Z,3.07
2022-12-06T21:44:40.479Z,3.4
2022-12-06T21:48:40.843Z,3.97
2022-12-06T21:52:40.512Z,3.2
2022-12-06T21:56:40.495Z,3.8
2022-12-06T22:00:41.081Z,3.77
2022-12-06T22:04:40.537Z,4.1
2022-12-06T22:08:40.550Z,3.77
2022-12-06T22:12:40.474Z,2.6
2022-12-06T22:16:40.657Z,4
2022-12-06T22:20:40.736Z,2.57
2022-12-06T22:24:40.543Z,3.23
2022-12-06T22:28:40.634Z,4.8
2022-12-06T22:32:40.470Z,4.27
2022-12-06T22:36:40.564Z,4.6
2022-12-06T22:40:41.039Z,4.2
2022-12-06T22:44:41.205Z,4.33
2022-12-06T22:48:41.191Z,3.93
2022-12-06T22:52:40.593Z,3.8
2022-12-06T22:56:40.585Z,4.17
2022-12-06T23:00:40.786Z,3.83
2022-12-06T23:04:40.636Z,4.23
2022-12-06T23:08:40.619Z,4.33
2022-12-06T23:12:40.484Z,3.97
2022-12-06T23:16:40.643Z,3.47
2022-12-06T23:20:40.435Z,4.1
2022-12-06T23:24:40.885Z,3.9
2022-12-06T23:28:40.561Z,4.03
2022-12-06T23:32:40.727Z,3.2
2022-12-06T23:36:40.400Z,4.87
2022-12-06T23:40:40.502Z,5.23
2022-12-06T23:44:40.513Z,4.67
2022-12-06T23:48:40.593Z,5.47
2022-12-06T23:52:40.570Z,5.5
2022-12-06T23:56:40.503Z,5.47
